Time;durP1;ratioP1;P1;durP2;ratioP2;P2;SDS_P1;SDS_P2;PMS_P1;PMS_P2;Temp;Humidity;BMP_temperature;BMP_pressure;BME280_temperature;BME280_humidity;BME280_pressure;Samples;Min_cycle;Max_cycle;Signal;HPM_P1;HPM_P2
2023/05/03 00:00:47;;;;;;;4.60;2.05;;;;;;;;;;5006065;28;20037;-62
2023/05/03 00:03:13;;;;;;;7.60;2.40;;;;;;;;;;5009588;28;20022;-62
2023/05/03 00:05:38;;;;;;;9.18;2.78;;;;;;;;;;5010310;28;20105;-61
2023/05/03 00:08:04;;;;;;;5.10;2.13;;;;;;;;;;5029644;23;20054;-64
2023/05/03 00:10:29;;;;;;;5.50;2.55;;;;;;;;;;5022004;28;20014;-67
2023/05/03 00:12:55;;;;;;;4.78;2.05;;;;;;;;;;5028174;28;20483;-66
2023/05/03 00:15:21;;;;;;;5.55;2.28;;;;;;;;;;5027874;28;20022;-67
2023/05/03 00:17:46;;;;;;;5.18;1.77;;;;;;;;;;5028099;28;20447;-67
2023/05/03 00:20:11;;;;;;;5.15;2.15;;;;;;;;;;5028007;28;20072;-68
2023/05/03 00:22:36;;;;;;;7.68;1.92;;;;;;;;;;5027861;28;20045;-67
2023/05/03 00:25:01;;;;;;;6.85;1.85;;;;;;;;;;5028089;28;20040;-68
2023/05/03 00:27:27;;;;;;;4.78;2.03;;;;;;;;;;5028148;28;20017;-67
2023/05/03 00:29:52;;;;;;;4.95;2.25;;;;;;;;;;5028221;28;20094;-69
2023/05/03 00:32:18;;;;;;;5.85;2.17;;;;;;;;;;5028094;28;20020;-69
2023/05/03 00:34:44;;;;;;;6.63;2.53;;;;;;;;;;5027755;28;20156;-66
2023/05/03 00:37:09;;;;;;;4.30;2.05;;;;;;;;;;5027814;28;20096;-69
2023/05/03 00:39:35;;;;;;;6.90;2.30;;;;;;;;;;5027299;28;20115;-68
2023/05/03 00:42:03;;;;;;;9.88;2.85;;;;;;;;;;5028304;28;20471;-68
2023/05/03 00:44:28;;;;;;;8.83;2.63;;;;;;;;;;5028036;28;20403;-69
2023/05/03 00:46:54;;;;;;;10.98;2.40;;;;;;;;;;5028056;28;20017;-68
2023/05/03 00:49:20;;;;;;;5.85;2.35;;;;;;;;;;5028063;28;20096;-69
2023/05/03 00:51:45;;;;;;;9.57;2.65;;;;;;;;;;5027982;28;20469;-65
2023/05/03 00:54:11;;;;;;;4.93;2.38;;;;;;;;;;5026326;28;20028;-69
2023/05/03 00:56:36;;;;;;;4.03;2.13;;;;;;;;;;5020453;28;20029;-68
2023/05/03 00:59:02;;;;;;;6.53;2.53;;;;;;;;;;5016211;28;20408;-65
2023/05/03 01:01:29;;;;;;;11.23;2.42;;;;;;;;;;5024669;28;20124;-66
2023/05/03 01:03:54;;;;;;;6.30;2.25;;;;;;;;;;5027580;28;20021;-68
2023/05/03 01:06:38;;;;;;;9.88;3.05;;;;;;;;;;5027739;28;20097;-68
2023/05/03 01:09:09;;;;;;;9.80;2.60;;;;;;;;;;5016783;28;20567;-70
2023/05/03 01:11:44;;;;;;;7.13;2.88;;;;;;;;;;5018608;28;20029;-70
2023/05/03 01:14:14;;;;;;;6.85;2.03;;;;;;;;;;5027230;28;20025;-66
2023/05/03 01:16:44;;;;;;;6.18;2.72;;;;;;;;;;5028165;28;20370;-65
2023/05/03 01:19:18;;;;;;;7.20;2.60;;;;;;;;;;5027621;28;20102;-70
2023/05/03 01:21:46;;;;;;;6.25;2.40;;;;;;;;;;5028045;28;20033;-69
2023/05/03 01:24:18;;;;;;;8.60;2.58;;;;;;;;;;5027528;28;20479;-65
2023/05/03 01:26:43;;;;;;;7.15;2.83;;;;;;;;;;5028371;28;20026;-66
2023/05/03 01:29:08;;;;;;;5.63;2.53;;;;;;;;;;5027925;28;20113;-70
2023/05/03 01:31:36;;;;;;;5.03;2.40;;;;;;;;;;5027770;28;20121;-69
2023/05/03 01:34:27;;;;;;;6.88;2.75;;;;;;;;;;5029777;28;20025;-69
2023/05/03 01:36:56;;;;;;;6.13;2.58;;;;;;;;;;5027903;28;20487;-66
2023/05/03 01:39:42;;;;;;;7.63;3.03;;;;;;;;;;5030538;28;20020;-70
2023/05/03 01:42:07;;;;;;;9.00;2.58;;;;;;;;;;5030997;28;20406;-69
2023/05/03 01:44:33;;;;;;;9.65;2.92;;;;;;;;;;5030973;28;20029;-67
2023/05/03 01:46:58;;;;;;;8.43;2.95;;;;;;;;;;5046256;28;20022;-66
2023/05/03 01:49:23;;;;;;;9.23;2.80;;;;;;;;;;5031054;28;20025;-70
2023/05/03 01:51:49;;;;;;;10.68;3.08;;;;;;;;;;5030724;28;20021;-66
2023/05/03 01:54:15;;;;;;;7.20;2.50;;;;;;;;;;5030485;28;20348;-69
2023/05/03 01:56:40;;;;;;;9.25;2.80;;;;;;;;;;5043236;28;20061;-70
2023/05/03 01:59:05;;;;;;;12.90;3.58;;;;;;;;;;5019385;28;20056;-66
2023/05/03 02:01:30;;;;;;;5.47;2.53;;;;;;;;;;5028573;28;20029;-68
2023/05/03 02:03:56;;;;;;;5.03;2.30;;;;;;;;;;5031070;28;20348;-68
2023/05/03 02:06:22;;;;;;;11.48;2.95;;;;;;;;;;5030795;28;20302;-67
2023/05/03 02:08:47;;;;;;;5.20;2.58;;;;;;;;;;5021324;28;20029;-65
2023/05/03 02:11:13;;;;;;;8.43;2.53;;;;;;;;;;5029408;28;20036;-68
2023/05/03 02:13:38;;;;;;;7.35;3.08;;;;;;;;;;5030650;28;20259;-68
2023/05/03 02:16:03;;;;;;;9.35;2.35;;;;;;;;;;5030252;28;20022;-67
2023/05/03 02:18:32;;;;;;;8.88;2.67;;;;;;;;;;5030520;28;20100;-69
2023/05/03 02:20:57;;;;;;;6.40;2.72;;;;;;;;;;5030273;28;20017;-65
2023/05/03 02:23:23;;;;;;;11.15;3.45;;;;;;;;;;5028856;28;20052;-69
2023/05/03 02:25:48;;;;;;;7.28;2.97;;;;;;;;;;5028524;28;20022;-67
2023/05/03 02:28:14;;;;;;;6.57;3.10;;;;;;;;;;5030227;28;20028;-67
2023/05/03 02:30:39;;;;;;;9.27;3.47;;;;;;;;;;5030190;28;20071;-70
2023/05/03 02:33:05;;;;;;;5.38;2.90;;;;;;;;;;5030078;28;20049;-68
2023/05/03 02:35:30;;;;;;;4.15;2.17;;;;;;;;;;5028030;28;20072;-69
2023/05/03 02:37:56;;;;;;;5.80;2.72;;;;;;;;;;5029293;28;20045;-70
2023/05/03 02:40:21;;;;;;;6.25;2.88;;;;;;;;;;5030206;28;20105;-69
2023/05/03 02:42:46;;;;;;;5.10;2.65;;;;;;;;;;5030053;28;20013;-67
2023/05/03 02:45:11;;;;;;;7.22;3.03;;;;;;;;;;5029424;28;20562;-69
2023/05/03 02:47:37;;;;;;;9.20;3.00;;;;;;;;;;5029979;28;20463;-70
2023/05/03 02:50:02;;;;;;;11.13;3.67;;;;;;;;;;5029783;28;20640;-70
2023/05/03 02:52:28;;;;;;;15.90;3.30;;;;;;;;;;5030071;28;20040;-70
2023/05/03 02:54:53;;;;;;;7.15;2.70;;;;;;;;;;5029760;28;20030;-67
2023/05/03 02:57:18;;;;;;;8.77;3.08;;;;;;;;;;5029569;28;20083;-69
2023/05/03 02:59:43;;;;;;;6.55;2.50;;;;;;;;;;5029088;28;20057;-68
2023/05/03 03:02:09;;;;;;;9.98;2.53;;;;;;;;;;5029476;28;20044;-69
2023/05/03 03:04:34;;;;;;;7.70;3.05;;;;;;;;;;5029280;28;20025;-69
2023/05/03 03:06:59;;;;;;;7.28;2.83;;;;;;;;;;5030086;28;20071;-69
2023/05/03 03:09:25;;;;;;;6.32;2.95;;;;;;;;;;5018810;28;20386;-68
2023/05/03 03:11:51;;;;;;;4.63;2.67;;;;;;;;;;5030308;28;20018;-69
2023/05/03 03:14:16;;;;;;;5.88;2.78;;;;;;;;;;5029951;28;20495;-69
2023/05/03 03:16:41;;;;;;;7.57;3.08;;;;;;;;;;5030593;28;20109;-69
2023/05/03 03:19:07;;;;;;;6.97;3.17;;;;;;;;;;5029776;28;20568;-68
2023/05/03 03:21:33;;;;;;;5.03;2.83;;;;;;;;;;5028850;28;20475;-68
2023/05/03 03:23:58;;;;;;;7.60;3.33;;;;;;;;;;5029006;28;20041;-70
2023/05/03 03:26:23;;;;;;;7.25;3.33;;;;;;;;;;5029836;28;20060;-70
2023/05/03 03:28:49;;;;;;;14.30;3.60;;;;;;;;;;5028729;28;20028;-70
2023/05/03 03:31:14;;;;;;;6.50;3.28;;;;;;;;;;5029363;28;20364;-68
2023/05/03 03:33:39;;;;;;;12.70;3.10;;;;;;;;;;5028674;28;20503;-69
2023/05/03 03:36:06;;;;;;;11.05;3.08;;;;;;;;;;5029046;28;20433;-67
2023/05/03 03:38:31;;;;;;;10.23;3.20;;;;;;;;;;5029037;28;20475;-65
2023/05/03 03:40:57;;;;;;;9.10;3.35;;;;;;;;;;5029204;28;20029;-67
2023/05/03 03:43:22;;;;;;;9.15;3.10;;;;;;;;;;5028922;28;20077;-67
2023/05/03 03:45:47;;;;;;;6.18;2.92;;;;;;;;;;5027027;28;20021;-69
2023/05/03 03:48:12;;;;;;;6.82;3.13;;;;;;;;;;5028462;28;20036;-68
2023/05/03 03:50:38;;;;;;;5.78;2.88;;;;;;;;;;5029066;28;20113;-67
2023/05/03 03:53:03;;;;;;;5.72;2.58;;;;;;;;;;5028301;28;20487;-66
2023/05/03 03:55:29;;;;;;;10.18;3.10;;;;;;;;;;5026308;28;20036;-68
2023/05/03 03:57:54;;;;;;;9.80;3.20;;;;;;;;;;5018660;28;20545;-68
2023/05/03 04:00:19;;;;;;;7.88;3.30;;;;;;;;;;5024969;28;20036;-69
2023/05/03 04:02:44;;;;;;;16.08;3.50;;;;;;;;;;5028430;28;20507;-67
2023/05/03 04:05:09;;;;;;;10.55;3.35;;;;;;;;;;5028483;28;20018;-66
2023/05/03 04:07:35;;;;;;;7.47;2.78;;;;;;;;;;5028185;28;20047;-68
2023/05/03 04:10:00;;;;;;;7.85;3.45;;;;;;;;;;5026260;28;20044;-66
2023/05/03 04:12:25;;;;;;;9.98;3.33;;;;;;;;;;5022522;28;20040;-68
2023/05/03 04:14:50;;;;;;;13.63;3.35;;;;;;;;;;5027854;28;20017;-67
2023/05/03 04:17:16;;;;;;;5.82;2.38;;;;;;;;;;5026107;28;20348;-68
2023/05/03 04:19:41;;;;;;;7.78;3.22;;;;;;;;;;5030821;28;20046;-68
2023/05/03 04:22:07;;;;;;;5.32;2.63;;;;;;;;;;5028379;28;20018;-68
2023/05/03 04:24:32;;;;;;;10.32;3.00;;;;;;;;;;5025776;28;20458;-71
2023/05/03 04:26:57;;;;;;;7.40;3.28;;;;;;;;;;5005420;28;20610;-69
2023/05/03 04:29:23;;;;;;;9.35;3.78;;;;;;;;;;5007162;28;20124;-70
2023/05/03 04:31:48;;;;;;;16.58;4.05;;;;;;;;;;5008172;28;20021;-66
2023/05/03 04:34:14;;;;;;;14.15;3.75;;;;;;;;;;5008235;28;20095;-68
2023/05/03 04:36:41;;;;;;;14.15;3.78;;;;;;;;;;5008554;28;20024;-68
2023/05/03 04:39:07;;;;;;;8.05;3.45;;;;;;;;;;5005942;28;20354;-70
2023/05/03 04:41:32;;;;;;;10.38;4.38;;;;;;;;;;5021322;28;20056;-69
2023/05/03 04:43:57;;;;;;;12.63;5.13;;;;;;;;;;5007080;28;20104;-69
2023/05/03 04:46:23;;;;;;;16.05;4.88;;;;;;;;;;5013188;28;20141;-68
2023/05/03 04:48:48;;;;;;;13.40;5.53;;;;;;;;;;5007422;28;20633;-68
2023/05/03 04:51:13;;;;;;;11.90;4.85;;;;;;;;;;5006361;28;20033;-70
2023/05/03 04:53:39;;;;;;;9.25;4.03;;;;;;;;;;5005188;28;20034;-65
2023/05/03 04:56:04;;;;;;;9.95;5.03;;;;;;;;;;5003853;28;20029;-71
2023/05/03 04:58:30;;;;;;;16.65;4.30;;;;;;;;;;5006752;28;20020;-69
2023/05/03 05:00:55;;;;;;;22.00;5.28;;;;;;;;;;5005006;28;20638;-68
2023/05/03 05:03:20;;;;;;;6.45;2.75;;;;;;;;;;5006293;28;20773;-67
2023/05/03 05:05:45;;;;;;;7.00;3.08;;;;;;;;;;5006186;28;20029;-68
2023/05/03 05:08:10;;;;;;;8.27;3.67;;;;;;;;;;5009123;28;20044;-66
2023/05/03 05:10:37;;;;;;;6.13;2.58;;;;;;;;;;5010733;28;20511;-68
2023/05/03 05:13:03;;;;;;;14.15;2.80;;;;;;;;;;5011858;28;20036;-68
2023/05/03 05:15:28;;;;;;;5.47;2.47;;;;;;;;;;5015750;28;20391;-67
2023/05/03 05:17:53;;;;;;;10.43;3.00;;;;;;;;;;5029131;28;20029;-69
2023/05/03 05:20:18;;;;;;;19.63;3.70;;;;;;;;;;5031423;28;20172;-68
2023/05/03 05:22:43;;;;;;;10.80;2.97;;;;;;;;;;5031609;28;20168;-67
2023/05/03 05:25:09;;;;;;;9.93;2.80;;;;;;;;;;5031119;28;20017;-66
2023/05/03 05:27:35;;;;;;;14.02;3.20;;;;;;;;;;5031380;28;20029;-68
2023/05/03 05:30:00;;;;;;;6.53;2.53;;;;;;;;;;5026191;28;20524;-69
2023/05/03 05:32:25;;;;;;;9.25;4.70;;;;;;;;;;5024070;28;20028;-70
2023/05/03 05:34:54;;;;;;;5.07;2.53;;;;;;;;;;5018504;28;20033;-68
2023/05/03 05:37:20;;;;;;;8.88;2.55;;;;;;;;;;5022595;28;20128;-65
2023/05/03 05:39:45;;;;;;;6.82;2.67;;;;;;;;;;5031236;28;20029;-70
2023/05/03 05:42:10;;;;;;;9.35;2.97;;;;;;;;;;5030690;28;20456;-68
2023/05/03 05:44:36;;;;;;;8.55;2.28;;;;;;;;;;5028752;28;20166;-68
2023/05/03 05:47:01;;;;;;;10.18;2.60;;;;;;;;;;5023207;28;20589;-67
2023/05/03 05:49:26;;;;;;;4.60;2.40;;;;;;;;;;5031135;28;20021;-68
2023/05/03 05:51:51;;;;;;;7.13;2.58;;;;;;;;;;5031086;28;20209;-69
2023/05/03 05:54:16;;;;;;;9.30;2.35;;;;;;;;;;5028300;28;20029;-66
2023/05/03 05:56:42;;;;;;;14.73;2.80;;;;;;;;;;5029349;28;20029;-67
2023/05/03 05:59:07;;;;;;;6.43;2.20;;;;;;;;;;5030244;28;20021;-70
2023/05/03 06:01:33;;;;;;;9.40;3.00;;;;;;;;;;5029897;28;20455;-68
2023/05/03 06:03:58;;;;;;;9.60;2.28;;;;;;;;;;5029551;28;20022;-67
2023/05/03 06:06:23;;;;;;;10.73;2.90;;;;;;;;;;5030854;28;20394;-68
2023/05/03 06:08:50;;;;;;;7.75;2.90;;;;;;;;;;5044177;23;20041;-65
2023/05/03 06:11:16;;;;;;;5.30;2.25;;;;;;;;;;5027935;28;20063;-65
2023/05/03 06:13:41;;;;;;;4.43;2.42;;;;;;;;;;5030519;28;20022;-67
2023/05/03 06:16:06;;;;;;;10.38;2.72;;;;;;;;;;5031839;28;20115;-61
2023/05/03 06:18:31;;;;;;;5.88;2.08;;;;;;;;;;5030901;28;20026;-65
2023/05/03 06:20:57;;;;;;;6.05;2.38;;;;;;;;;;5031507;28;20104;-63
2023/05/03 06:23:22;;;;;;;7.03;2.28;;;;;;;;;;5029756;28;20577;-67
2023/05/03 06:25:47;;;;;;;9.50;2.00;;;;;;;;;;5031834;28;20509;-64
2023/05/03 06:28:13;;;;;;;11.07;2.53;;;;;;;;;;5031365;28;20091;-63
2023/05/03 06:30:38;;;;;;;6.00;1.95;;;;;;;;;;5031969;28;20216;-65
2023/05/03 06:33:03;;;;;;;7.25;1.92;;;;;;;;;;5031787;28;20049;-62
2023/05/03 06:35:28;;;;;;;10.77;2.13;;;;;;;;;;5031204;28;20031;-64
2023/05/03 06:37:53;;;;;;;11.25;3.63;;;;;;;;;;5031082;28;20093;-60
2023/05/03 06:40:19;;;;;;;7.85;2.83;;;;;;;;;;5031283;28;20169;-65
2023/05/03 06:42:44;;;;;;;13.10;2.20;;;;;;;;;;5031073;28;20098;-64
2023/05/03 06:45:10;;;;;;;5.50;2.15;;;;;;;;;;5027346;28;20020;-64
2023/05/03 06:47:35;;;;;;;4.18;1.80;;;;;;;;;;5023616;28;20032;-63
2023/05/03 06:50:01;;;;;;;4.97;1.95;;;;;;;;;;5030176;28;20041;-65
2023/05/03 06:52:26;;;;;;;9.73;2.47;;;;;;;;;;5046877;28;20030;-63
2023/05/03 06:54:52;;;;;;;5.72;2.22;;;;;;;;;;5031209;28;20017;-64
2023/05/03 06:57:17;;;;;;;8.63;2.33;;;;;;;;;;5029749;28;20503;-65
2023/05/03 06:59:42;;;;;;;13.40;2.33;;;;;;;;;;5031570;28;20132;-62
2023/05/03 07:02:08;;;;;;;9.18;2.13;;;;;;;;;;5032882;28;20355;-64
2023/05/03 07:04:33;;;;;;;7.57;2.42;;;;;;;;;;5032494;28;20029;-63
2023/05/03 07:06:58;;;;;;;6.93;2.40;;;;;;;;;;5033020;28;20479;-64
2023/05/03 07:09:23;;;;;;;6.28;2.10;;;;;;;;;;5021628;28;20085;-60
2023/05/03 07:11:50;;;;;;;10.32;1.90;;;;;;;;;;5021800;28;20013;-64
2023/05/03 07:14:16;;;;;;;6.57;1.95;;;;;;;;;;5030993;28;20021;-62
2023/05/03 07:16:41;;;;;;;4.57;1.55;;;;;;;;;;5030883;28;20068;-64
2023/05/03 07:19:06;;;;;;;6.00;1.83;;;;;;;;;;5031098;28;20025;-65
2023/05/03 07:21:32;;;;;;;9.73;2.22;;;;;;;;;;5031129;28;20021;-61
2023/05/03 07:23:58;;;;;;;5.13;2.10;;;;;;;;;;5029943;28;20021;-64
2023/05/03 07:26:25;;;;;;;8.52;2.28;;;;;;;;;;5030829;28;20033;-62
2023/05/03 07:28:50;;;;;;;5.13;1.88;;;;;;;;;;5030415;28;20017;-65
2023/05/03 07:31:16;;;;;;;7.10;2.28;;;;;;;;;;5031154;28;20025;-63
2023/05/03 07:33:41;;;;;;;8.68;1.83;;;;;;;;;;5030504;28;20060;-61
2023/05/03 07:36:06;;;;;;;6.75;2.00;;;;;;;;;;5029372;28;20078;-64
2023/05/03 07:38:32;;;;;;;10.98;2.10;;;;;;;;;;5030198;28;20060;-64
2023/05/03 07:40:58;;;;;;;5.35;2.00;;;;;;;;;;5030913;28;20093;-64
2023/05/03 07:43:23;;;;;;;5.55;2.08;;;;;;;;;;5029165;28;20091;-62
2023/05/03 07:45:48;;;;;;;7.88;1.70;;;;;;;;;;5024743;28;20025;-64
2023/05/03 07:48:13;;;;;;;9.35;2.25;;;;;;;;;;5026502;28;20510;-64
2023/05/03 07:50:45;;;;;;;6.07;2.10;;;;;;;;;;5030261;28;20104;-65
2023/05/03 07:53:11;;;;;;;9.80;1.95;;;;;;;;;;5029302;28;21197;-65
2023/05/03 07:55:36;;;;;;;4.95;1.70;;;;;;;;;;5029550;28;20060;-65
2023/05/03 07:58:02;;;;;;;11.45;1.83;;;;;;;;;;5029495;28;20119;-65
2023/05/03 08:00:27;;;;;;;6.53;2.50;;;;;;;;;;5029666;28;20020;-63
2023/05/03 08:02:53;;;;;;;4.18;1.73;;;;;;;;;;5030016;28;21544;-63
2023/05/03 08:05:19;;;;;;;6.38;1.75;;;;;;;;;;5029240;28;20065;-65
2023/05/03 08:07:44;;;;;;;7.93;2.00;;;;;;;;;;5028954;28;20021;-65
2023/05/03 08:10:10;;;;;;;8.40;1.85;;;;;;;;;;5014106;28;20395;-64
2023/05/03 08:12:35;;;;;;;9.00;1.90;;;;;;;;;;5026455;28;20401;-64
2023/05/03 08:15:00;;;;;;;6.75;1.80;;;;;;;;;;5031372;28;20471;-61
2023/05/03 08:17:26;;;;;;;7.72;2.10;;;;;;;;;;5029986;28;20061;-65
2023/05/03 08:19:51;;;;;;;3.60;1.80;;;;;;;;;;5029799;28;20024;-65
2023/05/03 08:22:17;;;;;;;4.70;1.77;;;;;;;;;;5029951;28;20041;-64
2023/05/03 08:24:42;;;;;;;4.57;2.05;;;;;;;;;;5029392;28;20376;-62
2023/05/03 08:27:08;;;;;;;6.82;1.70;;;;;;;;;;5029950;28;20029;-65
2023/05/03 08:29:36;;;;;;;4.65;1.88;;;;;;;;;;5029791;28;20506;-64
2023/05/03 08:32:01;;;;;;;4.50;1.73;;;;;;;;;;5029922;28;20041;-64
2023/05/03 08:34:27;;;;;;;8.57;2.28;;;;;;;;;;5029341;28;20021;-64
2023/05/03 08:36:52;;;;;;;6.55;1.90;;;;;;;;;;5029858;28;20063;-59
2023/05/03 08:39:17;;;;;;;4.10;1.95;;;;;;;;;;5029467;28;20503;-64
2023/05/03 08:41:43;;;;;;;4.80;1.98;;;;;;;;;;5034828;28;20025;-61
2023/05/03 08:44:10;;;;;;;8.80;3.15;;;;;;;;;;5033811;28;20088;-65
2023/05/03 08:46:37;;;;;;;6.70;2.17;;;;;;;;;;5026848;28;20383;-65
2023/05/03 08:49:02;;;;;;;8.05;2.15;;;;;;;;;;5036252;28;20564;-62
2023/05/03 08:51:28;;;;;;;5.18;1.95;;;;;;;;;;5036083;28;20135;-64
2023/05/03 08:53:53;;;;;;;7.85;2.17;;;;;;;;;;5050880;28;20467;-63
2023/05/03 08:56:37;;;;;;;8.52;2.20;;;;;;;;;;5036279;28;20017;-63
2023/05/03 08:59:07;;;;;;;5.55;2.08;;;;;;;;;;5036426;28;20017;-61
2023/05/03 09:01:34;;;;;;;4.45;2.10;;;;;;;;;;5034340;28;20022;-63
2023/05/03 09:03:59;;;;;;;14.60;2.40;;;;;;;;;;5035283;28;20021;-65
2023/05/03 09:06:27;;;;;;;7.50;2.63;;;;;;;;;;5034050;28;20044;-63
2023/05/03 09:08:53;;;;;;;6.93;2.35;;;;;;;;;;5030697;28;20037;-61
2023/05/03 09:11:24;;;;;;;7.05;2.00;;;;;;;;;;5026480;28;20364;-65
2023/05/03 09:13:51;;;;;;;7.40;2.10;;;;;;;;;;5035209;28;20029;-65
2023/05/03 09:16:23;;;;;;;4.57;2.00;;;;;;;;;;5035533;28;20502;-64
2023/05/03 09:19:14;;;;;;;7.30;2.30;;;;;;;;;;5035756;28;20048;-63
2023/05/03 09:21:41;;;;;;;7.97;2.03;;;;;;;;;;5035579;28;20033;-63
2023/05/03 09:24:13;;;;;;;10.85;2.17;;;;;;;;;;5034964;28;20486;-64
2023/05/03 09:26:39;;;;;;;13.85;2.40;;;;;;;;;;5036201;28;20025;-66
2023/05/03 09:29:05;;;;;;;12.95;2.13;;;;;;;;;;5035618;28;20420;-65
2023/05/03 09:31:31;;;;;;;7.35;2.05;;;;;;;;;;5034360;28;20033;-65
2023/05/03 09:33:57;;;;;;;15.18;2.30;;;;;;;;;;5035133;28;20120;-67
2023/05/03 09:36:22;;;;;;;4.95;2.05;;;;;;;;;;5035653;28;20100;-64
2023/05/03 09:38:48;;;;;;;5.38;1.88;;;;;;;;;;5034975;28;20494;-65
2023/05/03 09:41:14;;;;;;;12.23;2.60;;;;;;;;;;5035661;28;20087;-63
2023/05/03 09:43:49;;;;;;;10.85;2.45;;;;;;;;;;5032077;28;20025;-63
2023/05/03 09:46:15;;;;;;;11.38;2.42;;;;;;;;;;5026905;28;20367;-64
2023/05/03 09:48:40;;;;;;;3.92;1.80;;;;;;;;;;5035195;28;20017;-65
2023/05/03 09:51:06;;;;;;;5.63;2.20;;;;;;;;;;5035494;28;20025;-66
2023/05/03 09:53:33;;;;;;;5.45;2.40;;;;;;;;;;5032354;28;20018;-62
2023/05/03 09:55:58;;;;;;;11.65;2.33;;;;;;;;;;5030391;28;20136;-64
2023/05/03 09:58:24;;;;;;;11.63;2.63;;;;;;;;;;5032053;28;20503;-66
2023/05/03 10:00:50;;;;;;;6.82;2.00;;;;;;;;;;5032732;28;20083;-63
2023/05/03 10:03:23;;;;;;;9.10;2.80;;;;;;;;;;5034248;28;20041;-65
2023/05/03 10:05:50;;;;;;;7.32;2.30;;;;;;;;;;5032080;28;20013;-64
2023/05/03 10:08:48;;;;;;;4.10;1.80;;;;;;;;;;5030303;28;20471;-64
2023/05/03 10:11:15;;;;;;;4.55;2.08;;;;;;;;;;5009256;28;20048;-64
2023/05/03 10:13:41;;;;;;;10.15;3.13;;;;;;;;;;5047314;28;20367;-64
2023/05/03 10:16:09;;;;;;;6.05;2.28;;;;;;;;;;5031861;28;20418;-66
2023/05/03 10:18:37;;;;;;;4.97;2.50;;;;;;;;;;5032305;28;20041;-64
2023/05/03 10:21:05;;;;;;;5.07;2.13;;;;;;;;;;5032432;28;20017;-65
2023/05/03 10:23:30;;;;;;;8.63;2.67;;;;;;;;;;5031901;28;20018;-64
2023/05/03 10:26:05;;;;;;;9.23;2.97;;;;;;;;;;5030614;28;20091;-61
2023/05/03 10:28:32;;;;;;;9.02;2.78;;;;;;;;;;5031687;28;20018;-62
2023/05/03 10:30:57;;;;;;;7.20;2.28;;;;;;;;;;5032256;28;20025;-63
2023/05/03 10:33:30;;;;;;;4.45;2.28;;;;;;;;;;5031464;28;20101;-65
2023/05/03 10:35:56;;;;;;;5.05;2.20;;;;;;;;;;5031508;28;20052;-64
2023/05/03 10:38:25;;;;;;;7.70;2.42;;;;;;;;;;5031619;28;20022;-65
2023/05/03 10:40:51;;;;;;;7.20;2.50;;;;;;;;;;5031160;28;20104;-62
2023/05/03 10:43:28;;;;;;;10.23;2.90;;;;;;;;;;5031030;28;20056;-65
2023/05/03 10:46:03;;;;;;;9.38;2.58;;;;;;;;;;5019815;28;20022;-63
2023/05/03 10:48:28;;;;;;;5.75;2.40;;;;;;;;;;5029168;28;20478;-65
2023/05/03 10:50:54;;;;;;;8.80;2.72;;;;;;;;;;5031217;28;20076;-65
2023/05/03 10:53:38;;;;;;;5.65;2.40;;;;;;;;;;5031019;28;20022;-65
2023/05/03 10:56:07;;;;;;;6.43;2.45;;;;;;;;;;5031153;28;20034;-65
2023/05/03 10:58:37;;;;;;;4.05;2.08;;;;;;;;;;5031555;28;20026;-65
2023/05/03 11:01:07;;;;;;;5.20;2.20;;;;;;;;;;5031456;28;20021;-66
2023/05/03 11:03:37;;;;;;;9.07;2.40;;;;;;;;;;5030745;28;20021;-64
2023/05/03 11:06:02;;;;;;;5.18;2.13;;;;;;;;;;5030532;28;20037;-65
2023/05/03 11:08:36;;;;;;;5.72;2.17;;;;;;;;;;5024765;28;20176;-62
2023/05/03 11:11:02;;;;;;;7.15;2.00;;;;;;;;;;5029336;28;20029;-64
2023/05/03 11:13:28;;;;;;;5.18;2.08;;;;;;;;;;5031855;28;20017;-66
2023/05/03 11:15:56;;;;;;;4.38;1.90;;;;;;;;;;5031353;28;20391;-65
2023/05/03 11:18:21;;;;;;;11.25;2.15;;;;;;;;;;5030867;28;20028;-64
2023/05/03 11:20:47;;;;;;;5.53;2.55;;;;;;;;;;5031665;28;20025;-63
2023/05/03 11:23:12;;;;;;;6.07;2.30;;;;;;;;;;5031039;28;20040;-64
2023/05/03 11:25:38;;;;;;;6.07;2.08;;;;;;;;;;5031280;28;20024;-62
2023/05/03 11:28:03;;;;;;;7.47;2.40;;;;;;;;;;5032992;28;20041;-64
2023/05/03 11:30:31;;;;;;;5.68;1.98;;;;;;;;;;5032675;28;20104;-64
2023/05/03 11:32:58;;;;;;;3.28;1.70;;;;;;;;;;5033038;28;20029;-63
2023/05/03 11:35:25;;;;;;;5.05;2.25;;;;;;;;;;5032034;28;20151;-64
2023/05/03 11:37:51;;;;;;;5.43;1.80;;;;;;;;;;5028962;28;20017;-64
2023/05/03 11:40:16;;;;;;;6.55;2.03;;;;;;;;;;5030558;28;20025;-61
2023/05/03 11:42:54;;;;;;;4.20;2.15;;;;;;;;;;5030469;28;20025;-65
2023/05/03 11:45:20;;;;;;;9.50;1.93;;;;;;;;;;5028404;28;20009;-61
2023/05/03 11:47:46;;;;;;;6.63;2.15;;;;;;;;;;5029636;28;20829;-65
2023/05/03 11:50:11;;;;;;;8.18;3.03;;;;;;;;;;5030507;28;20100;-64
2023/05/03 11:52:37;;;;;;;10.13;1.98;;;;;;;;;;5030074;28;20116;-63
2023/05/03 11:55:03;;;;;;;6.03;1.60;;;;;;;;;;5029247;28;20027;-62
2023/05/03 11:57:30;;;;;;;12.10;2.45;;;;;;;;;;5030518;28;20095;-61
2023/05/03 12:00:08;;;;;;;3.88;1.60;;;;;;;;;;5029948;28;20347;-65
2023/05/03 12:02:34;;;;;;;4.43;1.50;;;;;;;;;;5029750;28;20095;-64
2023/05/03 12:05:00;;;;;;;10.20;1.83;;;;;;;;;;5029932;28;20021;-62
2023/05/03 12:07:26;;;;;;;5.38;1.90;;;;;;;;;;5028359;28;20021;-64
2023/05/03 12:09:51;;;;;;;3.67;1.67;;;;;;;;;;5037003;22;20053;-66
2023/05/03 12:12:20;;;;;;;4.78;1.95;;;;;;;;;;5021279;28;20155;-66
2023/05/03 12:14:58;;;;;;;5.15;1.67;;;;;;;;;;5028296;28;20013;-67
2023/05/03 12:17:36;;;;;;;9.00;2.90;;;;;;;;;;5027435;28;20080;-65
2023/05/03 12:20:18;;;;;;;3.77;1.43;;;;;;;;;;5028638;28;20530;-67
2023/05/03 12:22:43;;;;;;;10.48;1.92;;;;;;;;;;5028071;28;20251;-66
2023/05/03 12:25:08;;;;;;;8.45;2.72;;;;;;;;;;5027490;28;20569;-66
2023/05/03 12:27:33;;;;;;;9.40;2.03;;;;;;;;;;5029269;28;20044;-66
2023/05/03 12:29:58;;;;;;;6.97;2.08;;;;;;;;;;5028954;28;20071;-69
2023/05/03 12:32:24;;;;;;;6.25;1.73;;;;;;;;;;5028570;28;20021;-65
2023/05/03 12:34:49;;;;;;;5.63;1.70;;;;;;;;;;5028331;28;20032;-68
2023/05/03 12:37:15;;;;;;;7.72;1.80;;;;;;;;;;5028817;28;20044;-65
2023/05/03 12:39:41;;;;;;;6.25;1.88;;;;;;;;;;5028740;28;20032;-69
2023/05/03 12:42:07;;;;;;;3.55;1.67;;;;;;;;;;5030052;28;20066;-65
2023/05/03 12:44:32;;;;;;;7.68;1.80;;;;;;;;;;5025027;28;20104;-68
2023/05/03 12:46:57;;;;;;;8.50;1.63;;;;;;;;;;5027410;28;20021;-67
2023/05/03 12:49:22;;;;;;;5.68;1.73;;;;;;;;;;5024554;28;20026;-67
2023/05/03 12:51:47;;;;;;;5.55;1.70;;;;;;;;;;5028337;28;20104;-69
2023/05/03 12:54:13;;;;;;;7.68;2.15;;;;;;;;;;5028077;28;20021;-65
2023/05/03 12:56:38;;;;;;;6.75;1.70;;;;;;;;;;5026242;28;20095;-68
2023/05/03 12:59:03;;;;;;;3.47;1.40;;;;;;;;;;5025137;28;20083;-67
2023/05/03 13:01:28;;;;;;;3.42;1.65;;;;;;;;;;5027591;28;20072;-69
2023/05/03 13:03:53;;;;;;;8.07;1.60;;;;;;;;;;5027745;28;20068;-67
2023/05/03 13:06:19;;;;;;;4.30;1.80;;;;;;;;;;5028005;28;20433;-66
2023/05/03 13:08:44;;;;;;;8.68;1.80;;;;;;;;;;5019432;28;20049;-71
2023/05/03 13:11:09;;;;;;;8.02;1.60;;;;;;;;;;5027753;28;20018;-68
2023/05/03 13:13:35;;;;;;;26.98;2.50;;;;;;;;;;5027903;28;20033;-65
2023/05/03 13:16:01;;;;;;;6.35;1.80;;;;;;;;;;5027592;28;20049;-67
2023/05/03 13:18:26;;;;;;;4.72;1.50;;;;;;;;;;5027743;28;20369;-70
2023/05/03 13:20:52;;;;;;;7.78;1.83;;;;;;;;;;5027170;28;20175;-66
2023/05/03 13:23:17;;;;;;;7.65;1.63;;;;;;;;;;5027593;28;20013;-70
2023/05/03 13:25:43;;;;;;;7.82;1.67;;;;;;;;;;5027403;28;20027;-69
2023/05/03 13:28:09;;;;;;;6.75;1.65;;;;;;;;;;5029744;28;20017;-68
2023/05/03 13:30:34;;;;;;;4.32;1.33;;;;;;;;;;5032422;28;20029;-66
2023/05/03 13:32:59;;;;;;;3.33;1.20;;;;;;;;;;5031695;28;20063;-69
2023/05/03 13:35:25;;;;;;;9.25;2.10;;;;;;;;;;5031376;28;20010;-66
2023/05/03 13:37:51;;;;;;;5.35;1.70;;;;;;;;;;5030277;28;20544;-71
2023/05/03 13:40:16;;;;;;;4.60;1.35;;;;;;;;;;5031325;28;20044;-70
2023/05/03 13:42:41;;;;;;;8.73;2.38;;;;;;;;;;5031605;28;20423;-67
2023/05/03 13:45:07;;;;;;;5.30;1.55;;;;;;;;;;5027343;28;20022;-67
2023/05/03 13:47:32;;;;;;;8.18;1.80;;;;;;;;;;5023725;28;20030;-69
2023/05/03 13:49:58;;;;;;;9.45;1.80;;;;;;;;;;5028695;28;20013;-68
2023/05/03 13:52:23;;;;;;;3.35;1.27;;;;;;;;;;5031533;28;20108;-66
2023/05/03 13:54:49;;;;;;;4.57;1.45;;;;;;;;;;5030650;28;20014;-69
2023/05/03 13:57:14;;;;;;;5.57;1.75;;;;;;;;;;5030367;28;20033;-69
2023/05/03 13:59:40;;;;;;;7.35;1.83;;;;;;;;;;5030631;28;20159;-69
2023/05/03 14:02:05;;;;;;;9.13;1.55;;;;;;;;;;5031347;28;20041;-70
2023/05/03 14:04:30;;;;;;;7.47;1.67;;;;;;;;;;5030328;28;20018;-68
2023/05/03 14:06:57;;;;;;;4.45;1.35;;;;;;;;;;5022679;28;20044;-69
2023/05/03 14:09:23;;;;;;;6.80;1.60;;;;;;;;;;5017494;28;20106;-69
2023/05/03 14:11:48;;;;;;;4.95;1.27;;;;;;;;;;5031118;28;20057;-68
2023/05/03 14:14:13;;;;;;;4.28;1.23;;;;;;;;;;5031308;28;20107;-69
2023/05/03 14:16:38;;;;;;;6.10;1.77;;;;;;;;;;5031496;28;20033;-68
2023/05/03 14:19:04;;;;;;;6.85;1.80;;;;;;;;;;5031413;28;20584;-68
2023/05/03 14:21:30;;;;;;;9.88;2.38;;;;;;;;;;5030616;28;20499;-66
2023/05/03 14:23:56;;;;;;;4.72;1.63;;;;;;;;;;5031230;28;20093;-69
2023/05/03 14:26:22;;;;;;;4.93;1.30;;;;;;;;;;5030631;28;20156;-67
2023/05/03 14:28:48;;;;;;;3.55;1.50;;;;;;;;;;5030184;28;20025;-71
2023/05/03 14:31:13;;;;;;;4.30;1.50;;;;;;;;;;5030426;28;20071;-68
2023/05/03 14:33:38;;;;;;;16.73;2.65;;;;;;;;;;5026450;28;20029;-69
2023/05/03 14:36:07;;;;;;;11.48;2.65;;;;;;;;;;5029947;28;20227;-67